South Quincy, Massachusetts
Current Conditions -  °F | °C
As of 2:54 AM on Friday 24 Oct 2014 (Local Time) from KBOS Reporting Station
Haze Haze  
Wind Chill: 43°   Ceiling: 1000
Heat Index: 48°   Visibility: 6mi
Dew Point: 48°   Wind: 13mph
Humidity: 100%   Direction: 330°NNW
Pressure: 29.66"   Gusts: 18mph
Location:  42.2468°N, 71.0071°W
Report Text: KBOS 240654Z 33011G16KT 6SM BR BKN010 OVC014 09/09 A2966 RMK AO2 RAB18E27 SLP043 P0000 T00890089
Loading
Personal Weather Stations






























Interactive Weather Map
Tropical Storm Tracking
New forecast layout! Learn more

10-Day Weather Forecast

Advertisements
Track Severe Weather on mobile